sensor_id;sensor_type;location;lat;lon;timestamp;P1;P2;P0
27143;PMS1003;14672;50.250;8.312;2023-08-06T00:00:57;19.67;19.00;10.33
27143;PMS1003;14672;50.250;8.312;2023-08-06T00:03:23;15.67;15.67;8.33
27143;PMS1003;14672;50.250;8.312;2023-08-06T00:05:49;18.33;18.33;12.00
27143;PMS1003;14672;50.250;8.312;2023-08-06T00:08:15;17.75;16.75;9.50
27143;PMS1003;14672;50.250;8.312;2023-08-06T00:10:40;18.67;18.00;11.00
27143;PMS1003;14672;50.250;8.312;2023-08-06T00:13:06;16.75;16.50;9.75
27143;PMS1003;14672;50.250;8.312;2023-08-06T00:15:32;20.00;20.00;12.00
27143;PMS1003;14672;50.250;8.312;2023-08-06T00:17:58;18.00;17.33;10.00
27143;PMS1003;14672;50.250;8.312;2023-08-06T00:20:24;21.00;19.00;10.00
27143;PMS1003;14672;50.250;8.312;2023-08-06T00:22:50;17.25;17.00;10.00
27143;PMS1003;14672;50.250;8.312;2023-08-06T00:25:16;17.67;17.67;10.67
27143;PMS1003;14672;50.250;8.312;2023-08-06T00:27:42;16.67;16.67;11.00
27143;PMS1003;14672;50.250;8.312;2023-08-06T00:30:08;18.67;17.67;10.00
27143;PMS1003;14672;50.250;8.312;2023-08-06T00:32:34;18.75;17.25;8.75
27143;PMS1003;14672;50.250;8.312;2023-08-06T00:35:00;19.33;18.00;9.00
27143;PMS1003;14672;50.250;8.312;2023-08-06T00:37:25;19.00;17.67;10.00
27143;PMS1003;14672;50.250;8.312;2023-08-06T00:39:51;19.67;17.33;11.00
27143;PMS1003;14672;50.250;8.312;2023-08-06T00:42:17;20.00;18.33;10.33
27143;PMS1003;14672;50.250;8.312;2023-08-06T00:44:46;16.25;16.25;9.75
27143;PMS1003;14672;50.250;8.312;2023-08-06T00:47:12;15.25;15.25;9.25
27143;PMS1003;14672;50.250;8.312;2023-08-06T00:49:38;16.50;15.50;8.00
27143;PMS1003;14672;50.250;8.312;2023-08-06T00:52:05;15.50;15.50;10.00
27143;PMS1003;14672;50.250;8.312;2023-08-06T00:54:33;16.75;16.75;9.75
27143;PMS1003;14672;50.250;8.312;2023-08-06T00:57:01;14.00;14.00;8.50
27143;PMS1003;14672;50.250;8.312;2023-08-06T00:59:28;19.00;16.75;10.00
27143;PMS1003;14672;50.250;8.312;2023-08-06T01:01:56;15.00;13.75;8.00
27143;PMS1003;14672;50.250;8.312;2023-08-06T01:04:22;18.00;16.33;8.67
27143;PMS1003;14672;50.250;8.312;2023-08-06T01:06:49;14.50;14.50;8.00
27143;PMS1003;14672;50.250;8.312;2023-08-06T01:09:54;16.50;15.50;8.25
27143;PMS1003;14672;50.250;8.312;2023-08-06T01:15:55;12.75;12.75;7.00
27143;PMS1003;14672;50.250;8.312;2023-08-06T01:18:29;12.75;12.75;7.00
27143;PMS1003;14672;50.250;8.312;2023-08-06T01:20:55;11.67;11.67;7.00
27143;PMS1003;14672;50.250;8.312;2023-08-06T01:23:21;14.00;13.67;7.33
27143;PMS1003;14672;50.250;8.312;2023-08-06T01:25:56;16.50;15.00;8.75
27143;PMS1003;14672;50.250;8.312;2023-08-06T01:32:00;14.00;14.00;8.00
27143;PMS1003;14672;50.250;8.312;2023-08-06T01:34:28;14.00;14.00;7.00
27143;PMS1003;14672;50.250;8.312;2023-08-06T01:36:59;15.50;13.75;7.75
27143;PMS1003;14672;50.250;8.312;2023-08-06T01:39:26;12.50;12.50;8.00
27143;PMS1003;14672;50.250;8.312;2023-08-06T01:41:52;15.67;15.00;8.67
27143;PMS1003;14672;50.250;8.312;2023-08-06T01:44:18;15.00;14.00;7.00
27143;PMS1003;14672;50.250;8.312;2023-08-06T01:46:44;14.33;14.33;8.00
27143;PMS1003;14672;50.250;8.312;2023-08-06T01:49:09;14.33;13.67;7.33
27143;PMS1003;14672;50.250;8.312;2023-08-06T01:51:35;12.33;12.00;5.33
27143;PMS1003;14672;50.250;8.312;2023-08-06T01:54:01;11.67;11.33;5.67
27143;PMS1003;14672;50.250;8.312;2023-08-06T01:56:27;14.00;12.67;7.00
27143;PMS1003;14672;50.250;8.312;2023-08-06T01:58:52;12.33;12.33;6.00
27143;PMS1003;14672;50.250;8.312;2023-08-06T02:01:18;17.00;15.00;8.33
27143;PMS1003;14672;50.250;8.312;2023-08-06T02:03:44;14.33;14.33;7.67
27143;PMS1003;14672;50.250;8.312;2023-08-06T02:06:09;14.67;13.67;7.33
27143;PMS1003;14672;50.250;8.312;2023-08-06T02:08:35;17.00;17.00;9.00
27143;PMS1003;14672;50.250;8.312;2023-08-06T02:11:01;15.00;14.00;8.00
27143;PMS1003;14672;50.250;8.312;2023-08-06T02:13:27;15.00;14.25;8.00
27143;PMS1003;14672;50.250;8.312;2023-08-06T02:15:53;17.00;17.00;10.00
27143;PMS1003;14672;50.250;8.312;2023-08-06T02:18:19;15.00;15.00;7.67
27143;PMS1003;14672;50.250;8.312;2023-08-06T02:20:54;19.33;19.33;11.00
27143;PMS1003;14672;50.250;8.312;2023-08-06T02:23:24;15.00;15.00;9.00
27143;PMS1003;14672;50.250;8.312;2023-08-06T02:26:03;14.50;14.50;7.25
27143;PMS1003;14672;50.250;8.312;2023-08-06T02:28:30;11.75;11.75;7.00
27143;PMS1003;14672;50.250;8.312;2023-08-06T02:30:56;11.75;11.75;6.50
27143;PMS1003;14672;50.250;8.312;2023-08-06T02:33:22;12.00;12.00;7.00
27143;PMS1003;14672;50.250;8.312;2023-08-06T02:38:28;14.50;14.00;7.00
27143;PMS1003;14672;50.250;8.312;2023-08-06T02:40:55;12.00;11.25;5.00
27143;PMS1003;14672;50.250;8.312;2023-08-06T02:43:20;16.00;16.00;8.67
27143;PMS1003;14672;50.250;8.312;2023-08-06T02:45:46;13.33;13.33;7.00
27143;PMS1003;14672;50.250;8.312;2023-08-06T02:48:12;15.67;14.00;8.00
27143;PMS1003;14672;50.250;8.312;2023-08-06T02:50:38;14.33;14.33;7.00
27143;PMS1003;14672;50.250;8.312;2023-08-06T02:53:05;15.25;15.00;8.00
27143;PMS1003;14672;50.250;8.312;2023-08-06T02:55:32;15.25;12.25;7.00
27143;PMS1003;14672;50.250;8.312;2023-08-06T02:58:00;15.75;14.50;7.00
27143;PMS1003;14672;50.250;8.312;2023-08-06T03:00:26;13.75;13.75;7.50
27143;PMS1003;14672;50.250;8.312;2023-08-06T03:02:53;16.00;16.00;8.67
27143;PMS1003;14672;50.250;8.312;2023-08-06T03:05:19;15.00;13.50;7.75
27143;PMS1003;14672;50.250;8.312;2023-08-06T03:07:45;16.33;16.33;11.00
27143;PMS1003;14672;50.250;8.312;2023-08-06T03:10:10;18.67;17.67;9.67
27143;PMS1003;14672;50.250;8.312;2023-08-06T03:12:36;16.33;16.33;9.00
27143;PMS1003;14672;50.250;8.312;2023-08-06T03:15:02;21.00;20.00;10.33
27143;PMS1003;14672;50.250;8.312;2023-08-06T03:17:28;17.25;16.75;9.25
27143;PMS1003;14672;50.250;8.312;2023-08-06T03:19:54;15.33;14.00;10.00
27143;PMS1003;14672;50.250;8.312;2023-08-06T03:22:19;17.00;16.33;8.33
27143;PMS1003;14672;50.250;8.312;2023-08-06T03:24:45;14.67;14.33;8.00
27143;PMS1003;14672;50.250;8.312;2023-08-06T03:27:11;18.00;17.33;11.00
27143;PMS1003;14672;50.250;8.312;2023-08-06T03:29:36;19.00;16.67;8.00
27143;PMS1003;14672;50.250;8.312;2023-08-06T03:32:02;17.67;17.67;10.00
27143;PMS1003;14672;50.250;8.312;2023-08-06T03:34:30;17.00;17.00;10.00
27143;PMS1003;14672;50.250;8.312;2023-08-06T03:36:56;16.67;15.33;9.33
27143;PMS1003;14672;50.250;8.312;2023-08-06T03:39:22;16.67;15.67;7.67
27143;PMS1003;14672;50.250;8.312;2023-08-06T03:41:47;15.00;14.00;8.00
27143;PMS1003;14672;50.250;8.312;2023-08-06T03:44:16;17.00;15.00;8.00
27143;PMS1003;14672;50.250;8.312;2023-08-06T03:46:42;14.67;14.67;8.00
27143;PMS1003;14672;50.250;8.312;2023-08-06T03:49:07;15.33;14.67;8.00
27143;PMS1003;14672;50.250;8.312;2023-08-06T03:51:36;13.50;13.50;5.50
27143;PMS1003;14672;50.250;8.312;2023-08-06T03:54:02;15.67;14.67;7.00
27143;PMS1003;14672;50.250;8.312;2023-08-06T03:56:28;16.00;14.00;7.00
27143;PMS1003;14672;50.250;8.312;2023-08-06T03:58:53;14.00;14.00;6.33
27143;PMS1003;14672;50.250;8.312;2023-08-06T04:01:19;13.00;13.00;7.00
27143;PMS1003;14672;50.250;8.312;2023-08-06T04:03:45;14.67;14.33;8.00
27143;PMS1003;14672;50.250;8.312;2023-08-06T04:06:10;10.33;10.33;5.00
27143;PMS1003;14672;50.250;8.312;2023-08-06T04:08:36;13.67;13.67;7.00
27143;PMS1003;14672;50.250;8.312;2023-08-06T04:11:02;13.00;12.67;5.00
27143;PMS1003;14672;50.250;8.312;2023-08-06T04:13:28;12.75;12.00;5.00
27143;PMS1003;14672;50.250;8.312;2023-08-06T04:15:54;16.00;13.00;7.00
27143;PMS1003;14672;50.250;8.312;2023-08-06T04:18:20;14.75;14.25;7.75
27143;PMS1003;14672;50.250;8.312;2023-08-06T04:20:46;13.00;13.00;6.33
27143;PMS1003;14672;50.250;8.312;2023-08-06T04:23:14;12.75;12.25;6.00
27143;PMS1003;14672;50.250;8.312;2023-08-06T04:25:40;12.67;12.67;5.00
27143;PMS1003;14672;50.250;8.312;2023-08-06T04:28:06;14.00;13.25;6.50
27143;PMS1003;14672;50.250;8.312;2023-08-06T04:30:32;12.75;12.75;7.75
27143;PMS1003;14672;50.250;8.312;2023-08-06T04:32:58;11.00;11.00;5.00
27143;PMS1003;14672;50.250;8.312;2023-08-06T04:35:25;13.75;12.75;7.00
27143;PMS1003;14672;50.250;8.312;2023-08-06T04:37:52;14.00;13.75;6.00
27143;PMS1003;14672;50.250;8.312;2023-08-06T04:40:17;15.33;15.33;7.00
27143;PMS1003;14672;50.250;8.312;2023-08-06T04:42:43;13.00;13.00;5.67
27143;PMS1003;14672;50.250;8.312;2023-08-06T04:45:09;15.67;14.00;7.00
27143;PMS1003;14672;50.250;8.312;2023-08-06T04:47:35;13.33;13.00;7.00
27143;PMS1003;14672;50.250;8.312;2023-08-06T04:50:01;14.00;14.00;7.00
27143;PMS1003;14672;50.250;8.312;2023-08-06T05:53:36;11.50;11.50;5.75
27143;PMS1003;14672;50.250;8.312;2023-08-06T05:56:02;7.67;7.67;4.00
27143;PMS1003;14672;50.250;8.312;2023-08-06T05:58:28;8.00;8.00;4.00
27143;PMS1003;14672;50.250;8.312;2023-08-06T06:00:55;7.75;7.25;4.00
27143;PMS1003;14672;50.250;8.312;2023-08-06T06:03:21;6.00;6.00;2.00
27143;PMS1003;14672;50.250;8.312;2023-08-06T06:05:47;5.67;5.67;2.00
27143;PMS1003;14672;50.250;8.312;2023-08-06T06:08:13;7.00;7.00;2.00
27143;PMS1003;14672;50.250;8.312;2023-08-06T06:10:39;7.00;7.00;2.67
27143;PMS1003;14672;50.250;8.312;2023-08-06T06:13:05;5.00;5.00;2.00
27143;PMS1003;14672;50.250;8.312;2023-08-06T06:15:30;7.00;7.00;2.00
27143;PMS1003;14672;50.250;8.312;2023-08-06T06:17:56;7.00;7.00;1.33
27143;PMS1003;14672;50.250;8.312;2023-08-06T06:20:22;5.67;5.67;2.00
27143;PMS1003;14672;50.250;8.312;2023-08-06T06:22:48;5.00;5.00;1.00
27143;PMS1003;14672;50.250;8.312;2023-08-06T06:25:13;6.33;6.33;2.00
27143;PMS1003;14672;50.250;8.312;2023-08-06T06:27:39;7.00;7.00;2.00
27143;PMS1003;14672;50.250;8.312;2023-08-06T06:30:05;5.00;5.00;2.00
27143;PMS1003;14672;50.250;8.312;2023-08-06T06:32:32;5.50;5.50;1.00
27143;PMS1003;14672;50.250;8.312;2023-08-06T06:34:59;5.00;5.00;2.00
27143;PMS1003;14672;50.250;8.312;2023-08-06T06:37:25;5.00;5.00;1.00
27143;PMS1003;14672;50.250;8.312;2023-08-06T06:39:50;5.00;5.00;2.00
27143;PMS1003;14672;50.250;8.312;2023-08-06T06:42:16;6.33;6.33;2.00
27143;PMS1003;14672;50.250;8.312;2023-08-06T06:44:42;7.00;5.00;1.00
27143;PMS1003;14672;50.250;8.312;2023-08-06T06:47:07;7.33;7.33;2.00
27143;PMS1003;14672;50.250;8.312;2023-08-06T06:49:33;5.00;5.00;2.00
27143;PMS1003;14672;50.250;8.312;2023-08-06T06:51:59;8.00;8.00;4.00
27143;PMS1003;14672;50.250;8.312;2023-08-06T06:54:24;5.00;5.00;2.00
27143;PMS1003;14672;50.250;8.312;2023-08-06T06:56:50;7.00;7.00;2.67
27143;PMS1003;14672;50.250;8.312;2023-08-06T06:59:16;7.00;7.00;2.00
27143;PMS1003;14672;50.250;8.312;2023-08-06T07:01:42;5.00;5.00;2.00
27143;PMS1003;14672;50.250;8.312;2023-08-06T07:04:07;7.00;7.00;4.00
27143;PMS1003;14672;50.250;8.312;2023-08-06T07:06:33;8.67;7.33;3.33
27143;PMS1003;14672;50.250;8.312;2023-08-06T07:08:59;7.00;7.00;2.67
27143;PMS1003;14672;50.250;8.312;2023-08-06T07:11:24;5.00;5.00;2.00
27143;PMS1003;14672;50.250;8.312;2023-08-06T07:13:55;5.67;5.67;1.67
27143;PMS1003;14672;50.250;8.312;2023-08-06T07:16:25;5.00;5.00;2.00
27143;PMS1003;14672;50.250;8.312;2023-08-06T07:18:51;4.00;4.00;1.00
27143;PMS1003;14672;50.250;8.312;2023-08-06T07:21:19;5.00;5.00;2.00
27143;PMS1003;14672;50.250;8.312;2023-08-06T07:23:45;7.00;7.00;2.00
27143;PMS1003;14672;50.250;8.312;2023-08-06T07:26:11;8.00;8.00;4.00
27143;PMS1003;14672;50.250;8.312;2023-08-06T07:28:37;5.00;4.75;1.00
27143;PMS1003;14672;50.250;8.312;2023-08-06T07:31:03;7.00;7.00;2.67
27143;PMS1003;14672;50.250;8.312;2023-08-06T07:33:29;5.00;5.00;1.50
27143;PMS1003;14672;50.250;8.312;2023-08-06T07:35:55;4.67;4.67;1.00
27143;PMS1003;14672;50.250;8.312;2023-08-06T07:38:20;5.00;5.00;2.00
27143;PMS1003;14672;50.250;8.312;2023-08-06T07:40:46;5.00;5.00;1.50
27143;PMS1003;14672;50.250;8.312;2023-08-06T07:43:12;5.00;5.00;2.00
27143;PMS1003;14672;50.250;8.312;2023-08-06T07:45:38;5.00;5.00;2.00
27143;PMS1003;14672;50.250;8.312;2023-08-06T07:48:04;5.00;5.00;1.25
27143;PMS1003;14672;50.250;8.312;2023-08-06T07:50:30;6.00;6.00;2.00
27143;PMS1003;14672;50.250;8.312;2023-08-06T07:52:56;5.00;5.00;1.25
27143;PMS1003;14672;50.250;8.312;2023-08-06T07:55:22;5.00;5.00;1.00
27143;PMS1003;14672;50.250;8.312;2023-08-06T07:57:47;6.33;6.33;2.00
27143;PMS1003;14672;50.250;8.312;2023-08-06T08:00:13;6.33;6.33;2.00
27143;PMS1003;14672;50.250;8.312;2023-08-06T08:02:42;4.25;4.25;1.25
27143;PMS1003;14672;50.250;8.312;2023-08-06T08:05:07;5.00;5.00;2.00
27143;PMS1003;14672;50.250;8.312;2023-08-06T08:07:33;5.00;5.00;1.00
27143;PMS1003;14672;50.250;8.312;2023-08-06T08:09:59;5.00;5.00;1.00
27143;PMS1003;14672;50.250;8.312;2023-08-06T08:12:25;5.00;5.00;2.00
27143;PMS1003;14672;50.250;8.312;2023-08-06T08:14:51;7.00;7.00;3.33
27143;PMS1003;14672;50.250;8.312;2023-08-06T08:17:17;5.00;5.00;2.00
27143;PMS1003;14672;50.250;8.312;2023-08-06T08:19:42;5.00;5.00;1.67
27143;PMS1003;14672;50.250;8.312;2023-08-06T08:22:08;5.00;5.00;2.00
27143;PMS1003;14672;50.250;8.312;2023-08-06T08:24:34;6.67;6.67;3.33
27143;PMS1003;14672;50.250;8.312;2023-08-06T08:27:00;5.00;5.00;2.00
27143;PMS1003;14672;50.250;8.312;2023-08-06T08:29:26;5.00;5.00;1.67
27143;PMS1003;14672;50.250;8.312;2023-08-06T08:31:52;5.00;5.00;2.00
27143;PMS1003;14672;50.250;8.312;2023-08-06T08:34:17;5.67;5.67;2.00
27143;PMS1003;14672;50.250;8.312;2023-08-06T08:39:20;5.00;5.00;1.75
27143;PMS1003;14672;50.250;8.312;2023-08-06T08:41:46;5.00;5.00;2.00
27143;PMS1003;14672;50.250;8.312;2023-08-06T08:44:11;6.00;6.00;3.33
27143;PMS1003;14672;50.250;8.312;2023-08-06T08:46:41;7.25;7.00;4.00
27143;PMS1003;14672;50.250;8.312;2023-08-06T08:49:09;6.75;6.75;3.00
27143;PMS1003;14672;50.250;8.312;2023-08-06T08:51:36;5.25;5.25;2.00
27143;PMS1003;14672;50.250;8.312;2023-08-06T08:54:03;5.00;5.00;1.75
27143;PMS1003;14672;50.250;8.312;2023-08-06T08:56:30;6.00;6.00;2.00
27143;PMS1003;14672;50.250;8.312;2023-08-06T08:58:57;5.75;5.75;2.00
27143;PMS1003;14672;50.250;8.312;2023-08-06T09:01:22;5.00;5.00;2.00
27143;PMS1003;14672;50.250;8.312;2023-08-06T09:03:49;5.75;5.75;2.00
27143;PMS1003;14672;50.250;8.312;2023-08-06T09:06:17;6.25;5.25;2.00
27143;PMS1003;14672;50.250;8.312;2023-08-06T09:08:54;5.75;5.75;2.00
27143;PMS1003;14672;50.250;8.312;2023-08-06T09:11:30;5.25;5.25;2.50
27143;PMS1003;14672;50.250;8.312;2023-08-06T09:14:10;5.00;5.00;1.75
27143;PMS1003;14672;50.250;8.312;2023-08-06T09:16:37;6.00;6.00;2.00
27143;PMS1003;14672;50.250;8.312;2023-08-06T09:19:09;9.00;8.00;4.00
27143;PMS1003;14672;50.250;8.312;2023-08-06T09:21:43;5.75;5.75;2.50
27143;PMS1003;14672;50.250;8.312;2023-08-06T09:24:14;5.50;5.50;2.00
27143;PMS1003;14672;50.250;8.312;2023-08-06T09:26:44;7.00;7.00;4.00
27143;PMS1003;14672;50.250;8.312;2023-08-06T09:29:11;5.00;5.00;2.00
27143;PMS1003;14672;50.250;8.312;2023-08-06T09:31:44;5.00;5.00;2.00
27143;PMS1003;14672;50.250;8.312;2023-08-06T09:34:15;5.00;5.00;2.00
27143;PMS1003;14672;50.250;8.312;2023-08-06T09:36:43;7.00;7.00;3.00
27143;PMS1003;14672;50.250;8.312;2023-08-06T09:39:16;5.00;5.00;2.00
27143;PMS1003;14672;50.250;8.312;2023-08-06T09:41:55;5.00;5.00;2.00
27143;PMS1003;14672;50.250;8.312;2023-08-06T09:44:27;5.00;5.00;2.00
27143;PMS1003;14672;50.250;8.312;2023-08-06T09:46:55;5.00;5.00;2.00
27143;PMS1003;14672;50.250;8.312;2023-08-06T09:52:01;6.00;6.00;2.00
27143;PMS1003;14672;50.250;8.312;2023-08-06T09:54:27;5.25;5.25;2.25
27143;PMS1003;14672;50.250;8.312;2023-08-06T09:56:55;6.00;6.00;2.00
27143;PMS1003;14672;50.250;8.312;2023-08-06T09:59:24;7.50;6.00;2.00
27143;PMS1003;14672;50.250;8.312;2023-08-06T10:01:51;6.00;6.00;2.00
27143;PMS1003;14672;50.250;8.312;2023-08-06T10:04:23;6.00;6.00;2.00
27143;PMS1003;14672;50.250;8.312;2023-08-06T10:06:49;11.25;7.75;3.75
27143;PMS1003;14672;50.250;8.312;2023-08-06T10:09:15;7.00;6.00;2.00
27143;PMS1003;14672;50.250;8.312;2023-08-06T10:11:43;5.50;5.50;2.00
27143;PMS1003;14672;50.250;8.312;2023-08-06T10:14:14;5.75;5.75;2.00
27143;PMS1003;14672;50.250;8.312;2023-08-06T10:16:53;5.00;5.00;2.00
27143;PMS1003;14672;50.250;8.312;2023-08-06T10:19:22;5.00;5.00;2.00
27143;PMS1003;14672;50.250;8.312;2023-08-06T10:27:20;7.75;7.75;3.50
27143;PMS1003;14672;50.250;8.312;2023-08-06T10:29:46;5.75;5.75;2.00
27143;PMS1003;14672;50.250;8.312;2023-08-06T10:32:11;6.00;6.00;2.00
27143;PMS1003;14672;50.250;8.312;2023-08-06T10:34:56;6.00;6.00;2.00
27143;PMS1003;14672;50.250;8.312;2023-08-06T10:37:36;6.00;6.00;2.00
27143;PMS1003;14672;50.250;8.312;2023-08-06T10:40:02;7.50;5.75;2.00
27143;PMS1003;14672;50.250;8.312;2023-08-06T10:42:31;6.00;6.00;4.00
27143;PMS1003;14672;50.250;8.312;2023-08-06T10:45:15;5.00;5.00;2.00
27143;PMS1003;14672;50.250;8.312;2023-08-06T10:47:45;5.00;5.00;2.00
27143;PMS1003;14672;50.250;8.312;2023-08-06T10:50:15;15.00;15.00;9.25
27143;PMS1003;14672;50.250;8.312;2023-08-06T10:52:45;19.75;19.75;13.00
27143;PMS1003;14672;50.250;8.312;2023-08-06T10:55:12;6.25;6.25;3.50
27143;PMS1003;14672;50.250;8.312;2023-08-06T10:57:39;7.50;7.50;3.50
27143;PMS1003;14672;50.250;8.312;2023-08-06T11:00:05;6.00;6.00;4.00
27143;PMS1003;14672;50.250;8.312;2023-08-06T11:02:34;5.75;5.75;2.00
27143;PMS1003;14672;50.250;8.312;2023-08-06T11:05:04;5.00;5.00;1.50
27143;PMS1003;14672;50.250;8.312;2023-08-06T11:07:35;7.00;6.25;2.00
27143;PMS1003;14672;50.250;8.312;2023-08-06T11:10:02;6.50;6.50;2.75
27143;PMS1003;14672;50.250;8.312;2023-08-06T11:12:30;8.00;7.75;3.75
27143;PMS1003;14672;50.250;8.312;2023-08-06T11:14:57;8.25;8.25;3.50
27143;PMS1003;14672;50.250;8.312;2023-08-06T11:17:24;7.00;7.00;3.75
27143;PMS1003;14672;50.250;8.312;2023-08-06T11:19:51;6.00;6.00;3.00
27143;PMS1003;14672;50.250;8.312;2023-08-06T11:22:19;5.25;5.00;2.00
27143;PMS1003;14672;50.250;8.312;2023-08-06T11:24:48;6.00;6.00;2.00
27143;PMS1003;14672;50.250;8.312;2023-08-06T11:27:15;7.00;7.00;3.00
27143;PMS1003;14672;50.250;8.312;2023-08-06T11:29:42;7.50;7.50;3.50
27143;PMS1003;14672;50.250;8.312;2023-08-06T11:32:09;6.00;5.25;1.00
27143;PMS1003;14672;50.250;8.312;2023-08-06T11:34:36;6.00;6.00;2.00
27143;PMS1003;14672;50.250;8.312;2023-08-06T11:37:02;6.00;6.00;3.00
27143;PMS1003;14672;50.250;8.312;2023-08-06T11:39:32;6.00;6.00;2.50
27143;PMS1003;14672;50.250;8.312;2023-08-06T11:42:00;6.00;6.00;2.50
27143;PMS1003;14672;50.250;8.312;2023-08-06T11:44:31;8.00;5.25;2.00
27143;PMS1003;14672;50.250;8.312;2023-08-06T11:47:00;6.50;6.50;2.00
27143;PMS1003;14672;50.250;8.312;2023-08-06T11:54:45;6.75;6.75;3.50
27143;PMS1003;14672;50.250;8.312;2023-08-06T11:57:12;6.00;6.00;2.00
27143;PMS1003;14672;50.250;8.312;2023-08-06T11:59:38;5.25;5.25;2.00
27143;PMS1003;14672;50.250;8.312;2023-08-06T12:02:05;6.00;6.00;2.50
27143;PMS1003;14672;50.250;8.312;2023-08-06T12:05:18;8.00;8.00;5.00
27143;PMS1003;14672;50.250;8.312;2023-08-06T12:07:42;7.75;7.75;4.00
27143;PMS1003;14672;50.250;8.312;2023-08-06T12:10:13;5.00;5.00;2.00
27143;PMS1003;14672;50.250;8.312;2023-08-06T12:12:40;7.00;7.00;2.00
27143;PMS1003;14672;50.250;8.312;2023-08-06T12:15:07;6.50;6.50;2.00
27143;PMS1003;14672;50.250;8.312;2023-08-06T12:17:35;5.00;5.00;2.00
27143;PMS1003;14672;50.250;8.312;2023-08-06T12:20:03;5.00;5.00;1.75
27143;PMS1003;14672;50.250;8.312;2023-08-06T12:22:30;7.25;7.25;4.00
27143;PMS1003;14672;50.250;8.312;2023-08-06T12:25:00;6.00;5.00;1.00
27143;PMS1003;14672;50.250;8.312;2023-08-06T12:27:34;7.00;7.00;2.00
27143;PMS1003;14672;50.250;8.312;2023-08-06T12:30:00;5.00;5.00;1.75
27143;PMS1003;14672;50.250;8.312;2023-08-06T12:32:27;7.00;7.00;2.00
27143;PMS1003;14672;50.250;8.312;2023-08-06T12:34:52;7.00;7.00;2.00
27143;PMS1003;14672;50.250;8.312;2023-08-06T12:37:18;8.00;8.00;2.67
27143;PMS1003;14672;50.250;8.312;2023-08-06T12:39:44;7.00;7.00;2.00
27143;PMS1003;14672;50.250;8.312;2023-08-06T12:42:10;7.00;7.00;2.00
27143;PMS1003;14672;50.250;8.312;2023-08-06T12:44:36;7.00;7.00;4.00
27143;PMS1003;14672;50.250;8.312;2023-08-06T12:47:02;6.33;6.33;2.00
27143;PMS1003;14672;50.250;8.312;2023-08-06T12:49:27;6.33;6.33;2.00
27143;PMS1003;14672;50.250;8.312;2023-08-06T12:51:54;7.75;7.50;3.00
27143;PMS1003;14672;50.250;8.312;2023-08-06T12:54:21;6.00;5.00;1.50
27143;PMS1003;14672;50.250;8.312;2023-08-06T12:56:47;5.00;5.00;2.00
27143;PMS1003;14672;50.250;8.312;2023-08-06T12:59:15;7.00;7.00;3.50
27143;PMS1003;14672;50.250;8.312;2023-08-06T13:01:43;7.00;7.00;2.00
27143;PMS1003;14672;50.250;8.312;2023-08-06T13:04:09;7.75;7.75;4.75
27143;PMS1003;14672;50.250;8.312;2023-08-06T13:06:36;5.50;5.50;2.00
27143;PMS1003;14672;50.250;8.312;2023-08-06T13:09:04;5.00;5.00;1.25
27143;PMS1003;14672;50.250;8.312;2023-08-06T13:11:33;6.75;6.50;2.00
27143;PMS1003;14672;50.250;8.312;2023-08-06T13:16:36;7.50;7.50;3.00
27143;PMS1003;14672;50.250;8.312;2023-08-06T13:19:04;5.00;5.00;1.50
27143;PMS1003;14672;50.250;8.312;2023-08-06T13:21:58;5.00;5.00;2.00
27143;PMS1003;14672;50.250;8.312;2023-08-06T13:24:25;5.50;5.50;1.75
27143;PMS1003;14672;50.250;8.312;2023-08-06T13:26:50;7.67;7.67;4.00
27143;PMS1003;14672;50.250;8.312;2023-08-06T13:29:16;7.00;7.00;3.33
27143;PMS1003;14672;50.250;8.312;2023-08-06T13:31:42;5.00;5.00;1.67
27143;PMS1003;14672;50.250;8.312;2023-08-06T13:34:08;5.67;5.67;2.67
27143;PMS1003;14672;50.250;8.312;2023-08-06T13:36:33;5.67;5.67;2.00
27143;PMS1003;14672;50.250;8.312;2023-08-06T13:38:59;6.33;6.33;2.00
27143;PMS1003;14672;50.250;8.312;2023-08-06T13:41:25;7.00;7.00;3.00
27143;PMS1003;14672;50.250;8.312;2023-08-06T13:43:51;7.00;7.00;2.67
27143;PMS1003;14672;50.250;8.312;2023-08-06T13:46:17;7.00;7.00;4.00
27143;PMS1003;14672;50.250;8.312;2023-08-06T13:48:45;7.00;7.00;2.50
27143;PMS1003;14672;50.250;8.312;2023-08-06T13:51:12;8.00;8.00;4.00
27143;PMS1003;14672;50.250;8.312;2023-08-06T13:53:39;7.00;7.00;2.00
27143;PMS1003;14672;50.250;8.312;2023-08-06T13:56:06;7.25;7.25;3.50
27143;PMS1003;14672;50.250;8.312;2023-08-06T13:58:35;6.50;6.50;1.75
27143;PMS1003;14672;50.250;8.312;2023-08-06T14:01:01;7.00;7.00;2.00
27143;PMS1003;14672;50.250;8.312;2023-08-06T14:03:27;9.75;7.00;2.50
27143;PMS1003;14672;50.250;8.312;2023-08-06T14:05:53;6.00;6.00;2.00
27143;PMS1003;14672;50.250;8.312;2023-08-06T14:08:22;7.25;7.25;3.50
27143;PMS1003;14672;50.250;8.312;2023-08-06T14:10:49;8.00;7.00;2.50
27143;PMS1003;14672;50.250;8.312;2023-08-06T14:13:18;7.00;7.00;2.00
27143;PMS1003;14672;50.250;8.312;2023-08-06T14:15:44;7.00;7.00;2.00
27143;PMS1003;14672;50.250;8.312;2023-08-06T14:18:13;5.00;5.00;1.75
27143;PMS1003;14672;50.250;8.312;2023-08-06T14:20:40;5.50;5.50;2.00
27143;PMS1003;14672;50.250;8.312;2023-08-06T14:23:09;5.00;5.00;1.25
27143;PMS1003;14672;50.250;8.312;2023-08-06T14:25:36;5.50;5.50;2.50
27143;PMS1003;14672;50.250;8.312;2023-08-06T14:28:03;4.25;4.25;1.00
27143;PMS1003;14672;50.250;8.312;2023-08-06T14:30:32;6.50;6.50;2.00
27143;PMS1003;14672;50.250;8.312;2023-08-06T14:32:59;5.50;5.50;2.00
27143;PMS1003;14672;50.250;8.312;2023-08-06T14:35:28;6.75;6.75;2.00
27143;PMS1003;14672;50.250;8.312;2023-08-06T14:37:54;6.75;6.75;2.00
27143;PMS1003;14672;50.250;8.312;2023-08-06T14:40:20;7.00;7.00;2.67
27143;PMS1003;14672;50.250;8.312;2023-08-06T14:42:46;7.00;7.00;2.00
27143;PMS1003;14672;50.250;8.312;2023-08-06T14:45:12;5.67;5.67;2.00
27143;PMS1003;14672;50.250;8.312;2023-08-06T14:47:38;6.75;6.75;3.00
27143;PMS1003;14672;50.250;8.312;2023-08-06T14:50:03;5.00;5.00;2.00
27143;PMS1003;14672;50.250;8.312;2023-08-06T14:52:29;6.75;6.75;2.00
27143;PMS1003;14672;50.250;8.312;2023-08-06T14:54:56;6.50;6.50;2.00
27143;PMS1003;14672;50.250;8.312;2023-08-06T14:57:22;7.00;7.00;1.00
27143;PMS1003;14672;50.250;8.312;2023-08-06T14:59:52;6.75;6.75;2.50
27143;PMS1003;14672;50.250;8.312;2023-08-06T15:02:22;8.00;6.75;2.00
27143;PMS1003;14672;50.250;8.312;2023-08-06T15:04:47;8.00;7.00;3.33
27143;PMS1003;14672;50.250;8.312;2023-08-06T15:07:15;6.75;6.75;3.50
27143;PMS1003;14672;50.250;8.312;2023-08-06T15:09:41;8.00;7.00;2.00
27143;PMS1003;14672;50.250;8.312;2023-08-06T15:12:06;7.00;7.00;2.00
27143;PMS1003;14672;50.250;8.312;2023-08-06T15:14:32;6.50;6.50;2.00
27143;PMS1003;14672;50.250;8.312;2023-08-06T15:16:58;7.00;7.00;4.00
27143;PMS1003;14672;50.250;8.312;2023-08-06T15:19:24;7.00;7.00;2.00
27143;PMS1003;14672;50.250;8.312;2023-08-06T15:21:50;9.00;9.00;4.50
27143;PMS1003;14672;50.250;8.312;2023-08-06T15:24:16;8.00;8.00;3.33
27143;PMS1003;14672;50.250;8.312;2023-08-06T15:26:42;8.00;8.00;4.00
27143;PMS1003;14672;50.250;8.312;2023-08-06T15:29:07;8.00;8.00;3.33
27143;PMS1003;14672;50.250;8.312;2023-08-06T15:31:37;7.00;7.00;2.00
27143;PMS1003;14672;50.250;8.312;2023-08-06T15:34:04;8.00;8.00;4.00
27143;PMS1003;14672;50.250;8.312;2023-08-06T15:36:32;7.75;7.75;4.00
27143;PMS1003;14672;50.250;8.312;2023-08-06T15:38:59;7.25;7.25;3.00
27143;PMS1003;14672;50.250;8.312;2023-08-06T15:41:31;7.00;7.00;2.00
27143;PMS1003;14672;50.250;8.312;2023-08-06T15:43:57;9.33;7.67;4.00